Time;durP1;ratioP1;P1;durP2;ratioP2;P2;SDS_P1;SDS_P2;PMS_P1;PMS_P2;Temp;Humidity;BMP_temperature;BMP_pressure;BME280_temperature;BME280_humidity;BME280_pressure;Samples;Min_cycle;Max_cycle;Signal;HPM_P1;HPM_P2
2023/03/22 00:01:13;;;;;;;12.30;8.90;;;11.60;99.90;;;;;;5008691;28;21064;-68
2023/03/22 00:03:40;;;;;;;18.63;8.63;;;11.60;99.90;;;;;;5005873;28;20558;-69
2023/03/22 00:06:08;;;;;;;13.53;9.07;;;11.60;99.90;;;;;;5008331;28;20516;-68
2023/03/22 00:08:35;;;;;;;14.77;9.10;;;11.50;99.90;;;;;;5012202;28;20460;-68
2023/03/22 00:11:03;;;;;;;13.47;8.77;;;11.50;99.90;;;;;;5014902;28;20488;-68
2023/03/22 00:13:30;;;;;;;17.53;8.83;;;11.40;99.90;;;;;;5010063;28;20488;-70
2023/03/22 00:15:58;;;;;;;12.60;8.20;;;11.30;99.90;;;;;;5015429;28;20536;-68
2023/03/22 00:18:27;;;;;;;18.10;9.60;;;11.30;99.90;;;;;;5006056;28;20477;-67
2023/03/22 00:20:55;;;;;;;14.63;8.27;;;11.30;99.90;;;;;;4990928;28;20877;-69
2023/03/22 00:23:23;;;;;;;16.60;8.83;;;11.30;99.90;;;;;;5015441;28;20461;-69
2023/03/22 00:25:50;;;;;;;15.17;8.23;;;11.20;99.90;;;;;;5019523;28;20460;-68
2023/03/22 00:28:17;;;;;;;15.53;9.80;;;11.20;99.90;;;;;;5021141;28;20580;-69
2023/03/22 00:30:52;;;;;;;15.53;8.20;;;11.20;99.90;;;;;;5018144;28;21005;-69
2023/03/22 00:33:19;;;;;;;14.63;8.03;;;11.20;99.90;;;;;;5018270;28;20445;-69
2023/03/22 00:35:54;;;;;;;14.67;8.30;;;11.20;99.90;;;;;;5015176;28;20454;-71
2023/03/22 00:38:22;;;;;;;14.70;8.83;;;11.10;99.90;;;;;;5027672;28;20468;-70
2023/03/22 00:40:50;;;;;;;18.93;8.70;;;11.10;99.90;;;;;;5019744;28;20501;-68
2023/03/22 00:43:17;;;;;;;13.07;9.77;;;11.10;99.90;;;;;;5014066;28;20508;-70
2023/03/22 00:45:44;;;;;;;13.50;8.63;;;11.10;99.90;;;;;;5009339;28;20973;-69
2023/03/22 00:48:12;;;;;;;12.50;8.53;;;11.10;99.90;;;;;;5016232;28;20973;-70
2023/03/22 00:50:40;;;;;;;13.10;9.03;;;11.10;99.90;;;;;;5031038;28;20461;-67
2023/03/22 00:53:09;;;;;;;11.90;8.77;;;11.10;99.90;;;;;;5025389;28;20449;-69
2023/03/22 00:55:36;;;;;;;13.33;9.17;;;11.10;99.90;;;;;;5036567;28;20463;-68
2023/03/22 00:58:03;;;;;;;11.20;8.27;;;11.20;99.90;;;;;;5035023;28;20519;-69
2023/03/22 01:00:31;;;;;;;13.77;9.60;;;11.20;99.90;;;;;;5034562;28;20490;-68
2023/03/22 01:03:02;;;;;;;12.97;8.87;;;11.10;99.90;;;;;;5011564;28;20460;-69
2023/03/22 01:05:32;;;;;;;14.30;10.03;;;11.10;99.90;;;;;;5017597;28;20937;-68
2023/03/22 01:08:01;;;;;;;18.40;9.97;;;11.10;99.90;;;;;;5015775;28;20434;-67
2023/03/22 01:10:30;;;;;;;17.83;9.43;;;11.10;99.90;;;;;;5015029;28;20477;-69
2023/03/22 01:12:57;;;;;;;14.43;9.00;;;11.10;99.90;;;;;;5014415;28;20544;-69
2023/03/22 01:15:24;;;;;;;19.67;10.00;;;11.10;99.90;;;;;;5014444;28;20976;-70
2023/03/22 01:17:52;;;;;;;12.87;8.87;;;11.10;99.90;;;;;;5014890;28;20494;-70
2023/03/22 01:20:19;;;;;;;11.90;9.00;;;11.10;99.90;;;;;;5014806;28;20500;-69
2023/03/22 01:22:46;;;;;;;12.70;9.00;;;11.10;99.90;;;;;;5014772;28;20484;-70
2023/03/22 01:25:13;;;;;;;18.30;9.90;;;11.10;99.90;;;;;;5015018;28;20509;-69
2023/03/22 01:27:42;;;;;;;17.73;11.23;;;11.10;99.90;;;;;;5014664;28;20556;-69
2023/03/22 01:30:10;;;;;;;18.60;11.03;;;11.10;99.90;;;;;;5016002;28;20465;-69
2023/03/22 01:32:38;;;;;;;20.30;11.83;;;11.10;99.90;;;;;;5016081;28;20442;-70
2023/03/22 01:35:07;;;;;;;13.83;8.93;;;11.10;99.90;;;;;;5015626;28;20437;-69
2023/03/22 01:37:37;;;;;;;14.77;9.17;;;11.10;99.90;;;;;;5014969;28;20953;-71
2023/03/22 01:40:05;;;;;;;15.60;9.47;;;11.10;99.90;;;;;;5015367;28;20527;-68
2023/03/22 01:42:32;;;;;;;16.90;9.20;;;11.10;99.90;;;;;;5015249;28;20576;-68
2023/03/22 01:45:38;;;;;;;15.10;9.57;;;11.10;99.90;;;;;;5015229;28;20543;-68
2023/03/22 01:48:12;;;;;;;13.43;9.47;;;11.00;99.90;;;;;;4965738;28;20477;-69
2023/03/22 01:50:42;;;;;;;20.90;11.67;;;11.00;99.90;;;;;;5016477;28;20465;-69
2023/03/22 01:53:13;;;;;;;16.10;10.50;;;11.00;99.90;;;;;;5015671;28;20445;-70
2023/03/22 01:55:40;;;;;;;16.03;10.17;;;11.10;99.90;;;;;;5013936;28;20484;-68
2023/03/22 01:58:07;;;;;;;17.33;10.50;;;11.10;99.90;;;;;;5015314;28;20484;-68
2023/03/22 02:00:35;;;;;;;19.57;10.60;;;11.10;99.90;;;;;;5014826;28;20466;-69
2023/03/22 02:03:05;;;;;;;19.10;13.33;;;11.10;99.90;;;;;;4996765;28;20470;-69
2023/03/22 02:05:36;;;;;;;16.13;8.60;;;11.10;99.90;;;;;;4994900;28;20521;-68
2023/03/22 02:08:04;;;;;;;16.60;11.27;;;11.10;99.90;;;;;;5004909;28;20493;-69
2023/03/22 02:10:31;;;;;;;20.43;11.60;;;11.10;99.90;;;;;;5014058;28;20477;-68
2023/03/22 02:13:23;;;;;;;18.00;11.80;;;11.10;99.90;;;;;;5012083;28;20456;-69
2023/03/22 02:16:03;;;;;;;21.20;12.17;;;11.10;99.90;;;;;;4995323;28;20942;-70
2023/03/22 02:18:55;;;;;;;16.43;10.03;;;11.10;99.90;;;;;;4994554;28;20472;-69
2023/03/22 02:21:52;;;;;;;20.63;11.53;;;11.00;99.90;;;;;;5013332;28;20538;-68
2023/03/22 02:25:04;;;;;;;15.37;10.20;;;10.90;99.90;;;;;;4949332;28;20906;-69
2023/03/22 02:28:05;;;;;;;18.03;10.50;;;10.90;99.90;;;;;;4998279;28;20520;-67
2023/03/22 02:31:02;;;;;;;20.70;10.50;;;10.80;99.90;;;;;;4999171;28;20472;-68
2023/03/22 02:33:45;;;;;;;16.60;8.40;;;10.80;99.90;;;;;;4983371;28;20462;-68
2023/03/22 02:36:48;;;;;;;12.70;9.50;;;10.80;99.90;;;;;;5007501;28;20488;-70
2023/03/22 02:39:25;;;;;;;16.13;11.13;;;10.70;99.90;;;;;;5008099;28;20503;-69
2023/03/22 02:42:07;;;;;;;16.43;9.90;;;10.70;99.90;;;;;;5019218;28;20504;-68
2023/03/22 02:44:42;;;;;;;13.27;9.63;;;10.70;99.90;;;;;;5018719;28;20908;-69
2023/03/22 02:47:20;;;;;;;13.80;9.57;;;10.70;99.90;;;;;;5018325;28;20520;-68
2023/03/22 02:49:54;;;;;;;15.30;8.93;;;10.70;99.90;;;;;;5017972;28;20531;-69
2023/03/22 02:52:26;;;;;;;11.23;7.60;;;10.60;99.90;;;;;;5009400;28;20441;-68
2023/03/22 02:55:03;;;;;;;12.50;9.03;;;10.60;99.90;;;;;;5029089;28;20476;-68
2023/03/22 02:57:35;;;;;;;14.00;9.27;;;10.60;99.90;;;;;;5018059;28;20447;-67
2023/03/22 03:00:09;;;;;;;14.00;8.50;;;10.60;99.90;;;;;;5018481;28;20496;-68
2023/03/22 03:02:40;;;;;;;17.47;9.57;;;10.60;99.90;;;;;;5019009;28;20519;-68
2023/03/22 03:05:10;;;;;;;16.03;11.00;;;10.60;99.90;;;;;;5017481;28;20968;-67
2023/03/22 03:07:38;;;;;;;16.60;10.60;;;10.50;99.90;;;;;;5017346;28;20485;-68
2023/03/22 03:10:09;;;;;;;19.43;11.27;;;10.50;99.90;;;;;;5018626;28;20496;-67
2023/03/22 03:12:36;;;;;;;23.20;10.93;;;10.50;99.90;;;;;;5018012;28;20544;-68
2023/03/22 03:15:13;;;;;;;14.23;9.40;;;10.50;99.90;;;;;;5016617;28;20469;-69
2023/03/22 03:18:04;;;;;;;18.80;10.17;;;10.50;99.90;;;;;;5017118;28;20457;-69
2023/03/22 03:20:47;;;;;;;14.20;10.00;;;10.50;99.90;;;;;;5014651;28;20523;-71
2023/03/22 03:23:30;;;;;;;16.67;9.77;;;10.40;99.90;;;;;;4998139;28;20453;-69
2023/03/22 03:26:03;;;;;;;16.03;11.20;;;10.40;99.90;;;;;;4998240;28;20489;-68
2023/03/22 03:28:38;;;;;;;17.13;9.87;;;10.40;99.90;;;;;;4998232;28;20657;-70
2023/03/22 03:31:18;;;;;;;19.30;9.90;;;10.30;99.90;;;;;;4998332;28;20429;-69
2023/03/22 03:33:56;;;;;;;17.87;9.93;;;10.30;99.90;;;;;;5010079;28;20456;-69
2023/03/22 03:36:24;;;;;;;16.50;9.77;;;10.20;99.90;;;;;;4999773;28;20445;-68
2023/03/22 03:38:55;;;;;;;15.03;9.87;;;10.20;99.90;;;;;;5017165;28;20493;-68
2023/03/22 03:41:27;;;;;;;15.33;9.90;;;10.10;99.90;;;;;;5017277;28;20516;-69
2023/03/22 03:43:57;;;;;;;16.33;9.87;;;10.10;99.90;;;;;;5017293;28;20979;-69
2023/03/22 03:46:24;;;;;;;19.20;10.33;;;10.10;99.90;;;;;;5015836;28;20457;-68
2023/03/22 03:48:55;;;;;;;14.17;9.83;;;10.00;99.90;;;;;;5016451;28;20472;-70
2023/03/22 03:51:22;;;;;;;17.00;10.10;;;10.00;99.90;;;;;;5017528;28;20496;-70
2023/03/22 03:53:53;;;;;;;18.00;9.37;;;10.00;99.90;;;;;;5016821;28;20802;-69
2023/03/22 03:56:19;;;;;;;17.60;9.03;;;10.00;99.90;;;;;;5016725;28;20485;-69
2023/03/22 03:58:48;;;;;;;13.30;9.27;;;10.00;99.90;;;;;;5016390;28;20574;-69
2023/03/22 04:01:18;;;;;;;16.03;10.00;;;10.00;99.90;;;;;;5015707;28;20485;-69
2023/03/22 04:03:49;;;;;;;13.53;9.20;;;10.00;99.90;;;;;;5015516;28;20418;-70
2023/03/22 04:06:16;;;;;;;15.23;10.23;;;10.00;99.90;;;;;;5016700;28;20469;-69
2023/03/22 04:08:44;;;;;;;15.90;9.00;;;10.00;99.90;;;;;;5012828;28;20465;-69
2023/03/22 04:11:11;;;;;;;15.67;7.93;;;10.00;99.90;;;;;;4998036;28;20920;-69
2023/03/22 04:13:43;;;;;;;12.37;7.90;;;10.00;99.90;;;;;;5015805;28;20481;-69
2023/03/22 04:16:12;;;;;;;13.30;9.07;;;10.00;99.90;;;;;;5016291;28;20548;-71
2023/03/22 04:18:40;;;;;;;14.13;9.63;;;10.00;99.90;;;;;;5016402;28;20545;-68
2023/03/22 04:21:16;;;;;;;13.97;9.13;;;10.00;99.90;;;;;;5015963;28;20913;-70
2023/03/22 04:23:45;;;;;;;13.70;8.10;;;10.10;99.90;;;;;;5015240;28;20536;-69
2023/03/22 04:26:12;;;;;;;17.13;10.20;;;10.10;99.90;;;;;;5016642;28;20449;-68
2023/03/22 04:28:40;;;;;;;11.50;8.87;;;10.10;99.90;;;;;;5015422;28;20476;-68
2023/03/22 04:31:07;;;;;;;12.40;8.33;;;10.10;99.90;;;;;;5016124;28;20445;-68
2023/03/22 04:33:38;;;;;;;12.83;8.37;;;10.10;99.90;;;;;;5014224;28;20675;-70
2023/03/22 04:36:09;;;;;;;14.13;9.80;;;10.10;99.90;;;;;;4978809;28;20446;-71
2023/03/22 04:38:40;;;;;;;20.93;9.77;;;10.10;99.90;;;;;;4995769;28;20466;-70
2023/03/22 04:41:07;;;;;;;15.83;9.10;;;10.20;99.90;;;;;;5001939;28;20490;-69
2023/03/22 04:43:38;;;;;;;16.87;8.90;;;10.20;99.90;;;;;;5014961;28;20496;-69
2023/03/22 04:46:08;;;;;;;14.07;9.60;;;10.20;99.90;;;;;;5015598;28;20469;-71
2023/03/22 04:48:38;;;;;;;19.90;8.50;;;10.20;99.90;;;;;;5014344;28;20473;-70
2023/03/22 04:51:11;;;;;;;16.87;9.80;;;10.20;99.90;;;;;;5016051;28;20469;-69
2023/03/22 04:53:42;;;;;;;15.53;9.60;;;10.20;99.90;;;;;;5016264;28;20553;-69
2023/03/22 04:56:12;;;;;;;13.93;9.37;;;10.20;99.90;;;;;;5021272;28;20512;-68
2023/03/22 04:58:42;;;;;;;17.80;10.03;;;10.20;99.90;;;;;;5015375;28;20472;-68
2023/03/22 05:01:12;;;;;;;16.73;9.10;;;10.20;99.90;;;;;;5015023;28;20457;-68
2023/03/22 05:03:41;;;;;;;12.57;9.10;;;10.20;99.90;;;;;;5014795;28;20461;-68
2023/03/22 05:06:10;;;;;;;14.23;10.90;;;10.30;99.90;;;;;;5015080;28;20477;-69
2023/03/22 05:08:38;;;;;;;16.80;10.20;;;10.20;99.90;;;;;;5014507;28;20907;-69
2023/03/22 05:11:09;;;;;;;16.63;10.50;;;10.20;99.90;;;;;;4996375;28;20523;-69
2023/03/22 05:13:40;;;;;;;12.27;8.40;;;10.20;99.90;;;;;;5014362;28;20927;-69
2023/03/22 05:16:09;;;;;;;16.77;10.07;;;10.20;99.90;;;;;;5014736;28;20433;-69
2023/03/22 05:18:36;;;;;;;15.23;9.80;;;10.20;99.90;;;;;;5003087;28;20502;-69
2023/03/22 05:21:05;;;;;;;11.63;7.23;;;10.20;99.90;;;;;;4995225;28;20826;-69
2023/03/22 05:23:32;;;;;;;12.50;9.77;;;10.20;99.90;;;;;;4995686;28;20434;-69
2023/03/22 05:26:03;;;;;;;15.80;9.00;;;10.20;99.90;;;;;;5006582;28;20596;-69
2023/03/22 05:28:30;;;;;;;19.47;11.43;;;10.30;99.90;;;;;;5015059;28;20878;-68
2023/03/22 05:31:00;;;;;;;26.70;9.83;;;10.30;99.90;;;;;;5014754;28;20528;-69
2023/03/22 05:33:28;;;;;;;16.43;9.67;;;10.30;99.90;;;;;;5014758;28;20472;-69
2023/03/22 05:35:55;;;;;;;24.20;10.50;;;10.30;99.90;;;;;;5014563;28;20483;-69
2023/03/22 05:38:24;;;;;;;13.90;8.90;;;10.30;99.90;;;;;;5013952;28;20893;-70
2023/03/22 05:40:51;;;;;;;15.20;8.57;;;10.20;99.90;;;;;;5014389;28;20503;-70
2023/03/22 05:43:19;;;;;;;13.90;9.90;;;10.20;99.90;;;;;;5014773;28;20437;-71
2023/03/22 05:45:46;;;;;;;14.13;8.83;;;10.20;99.90;;;;;;5014492;28;20521;-68
2023/03/22 05:48:13;;;;;;;14.07;9.60;;;10.20;99.90;;;;;;5015091;28;20449;-68
2023/03/22 05:50:40;;;;;;;22.57;10.60;;;10.30;99.90;;;;;;5015221;28;20449;-69
2023/03/22 05:53:08;;;;;;;20.17;11.23;;;10.30;99.90;;;;;;5013416;28;20571;-70
2023/03/22 05:55:36;;;;;;;21.23;11.47;;;10.30;99.90;;;;;;5020193;28;20471;-68
2023/03/22 05:58:03;;;;;;;17.97;10.97;;;10.30;99.90;;;;;;5019999;28;20900;-69
2023/03/22 06:00:31;;;;;;;15.30;10.60;;;10.30;99.90;;;;;;5022313;28;20429;-70
2023/03/22 06:03:02;;;;;;;13.80;10.53;;;10.20;99.90;;;;;;5023441;28;20811;-68
2023/03/22 06:05:30;;;;;;;23.63;11.70;;;10.30;99.90;;;;;;5020257;28;20472;-70
2023/03/22 06:07:57;;;;;;;17.70;10.73;;;10.30;99.90;;;;;;5019990;28;20449;-69
2023/03/22 06:10:27;;;;;;;15.47;10.63;;;10.30;99.90;;;;;;5019141;28;20473;-69
2023/03/22 06:12:55;;;;;;;17.37;11.20;;;10.30;99.90;;;;;;5019391;28;20457;-69
2023/03/22 06:15:23;;;;;;;20.03;10.90;;;10.30;99.90;;;;;;5014966;28;20475;-68
2023/03/22 06:17:50;;;;;;;18.67;10.67;;;10.30;99.90;;;;;;5013316;28;20488;-68
2023/03/22 06:20:18;;;;;;;21.20;11.57;;;10.30;99.90;;;;;;5014362;28;20465;-68
2023/03/22 06:22:45;;;;;;;17.27;9.73;;;10.30;99.90;;;;;;5012235;28;20509;-69
2023/03/22 06:25:13;;;;;;;15.97;10.83;;;10.40;99.90;;;;;;5013078;28;20511;-69
2023/03/22 06:27:40;;;;;;;17.93;11.60;;;10.40;99.90;;;;;;4995202;28;20668;-68
2023/03/22 06:30:10;;;;;;;18.23;10.87;;;10.40;99.90;;;;;;5013956;28;20472;-69
2023/03/22 06:32:37;;;;;;;19.90;10.60;;;10.40;99.90;;;;;;4995420;28;20489;-68
2023/03/22 06:35:05;;;;;;;15.90;9.83;;;10.40;99.90;;;;;;5007049;28;20856;-69
2023/03/22 06:37:32;;;;;;;16.67;9.93;;;10.40;99.90;;;;;;5019597;28;20515;-70
2023/03/22 06:39:59;;;;;;;20.63;10.30;;;10.40;99.90;;;;;;5004812;28;20559;-68
2023/03/22 06:42:26;;;;;;;16.30;9.87;;;10.40;99.90;;;;;;5001841;28;20511;-68
2023/03/22 06:44:53;;;;;;;16.83;11.17;;;10.40;99.90;;;;;;5016639;28;20811;-69
2023/03/22 06:47:23;;;;;;;18.27;10.10;;;10.40;99.90;;;;;;5017463;28;20526;-69
2023/03/22 06:49:51;;;;;;;23.00;11.23;;;10.40;99.90;;;;;;5011792;28;20485;-69
2023/03/22 06:52:18;;;;;;;15.50;11.20;;;10.50;99.90;;;;;;5011645;28;20488;-70
2023/03/22 06:54:45;;;;;;;23.73;12.37;;;10.50;99.90;;;;;;5014960;28;20532;-65
2023/03/22 06:57:12;;;;;;;14.20;10.33;;;10.60;99.90;;;;;;5016456;28;20511;-68
2023/03/22 06:59:40;;;;;;;17.03;11.43;;;10.70;99.90;;;;;;5024112;28;20523;-66
2023/03/22 07:02:07;;;;;;;16.40;10.67;;;10.80;99.90;;;;;;5014028;28;20472;-69
2023/03/22 07:04:35;;;;;;;13.07;9.10;;;10.90;99.90;;;;;;5004766;28;20485;-70
2023/03/22 07:07:02;;;;;;;16.20;11.10;;;10.90;99.90;;;;;;5013531;28;20461;-68
2023/03/22 07:09:29;;;;;;;18.00;11.13;;;11.00;99.90;;;;;;5004937;28;20476;-68
2023/03/22 07:11:57;;;;;;;16.03;10.20;;;11.10;99.90;;;;;;5014356;28;20453;-68
2023/03/22 07:14:24;;;;;;;17.87;9.70;;;11.10;99.90;;;;;;5014304;28;20491;-68
2023/03/22 07:16:51;;;;;;;16.83;10.27;;;11.10;99.90;;;;;;5023795;28;20550;-68
2023/03/22 07:19:19;;;;;;;17.60;10.80;;;11.10;99.90;;;;;;5024943;28;20629;-67
2023/03/22 07:21:53;;;;;;;18.23;11.23;;;11.10;99.90;;;;;;5025160;28;20500;-68
2023/03/22 07:24:20;;;;;;;19.07;11.13;;;11.20;99.90;;;;;;5016725;28;20511;-67
2023/03/22 07:26:47;;;;;;;18.17;9.87;;;11.30;99.90;;;;;;5015390;28;20520;-68
2023/03/22 07:29:14;;;;;;;19.70;9.67;;;11.30;99.90;;;;;;5018138;28;20501;-68
2023/03/22 07:31:44;;;;;;;12.63;9.80;;;11.40;99.90;;;;;;5005877;28;20493;-67
2023/03/22 07:34:11;;;;;;;17.53;10.33;;;11.40;99.90;;;;;;4986101;28;20528;-69
2023/03/22 07:36:38;;;;;;;16.40;10.30;;;11.50;99.90;;;;;;4999663;28;20542;-69
2023/03/22 07:39:06;;;;;;;16.40;10.00;;;11.60;99.90;;;;;;5023025;28;20510;-67
2023/03/22 07:41:34;;;;;;;15.70;9.53;;;11.70;99.90;;;;;;5025510;28;20492;-68
2023/03/22 07:44:01;;;;;;;18.70;10.70;;;11.70;99.90;;;;;;5002053;28;20480;-68
2023/03/22 07:46:34;;;;;;;16.10;10.47;;;11.80;99.90;;;;;;4998114;28;20548;-68
2023/03/22 07:49:01;;;;;;;19.33;9.33;;;11.90;99.90;;;;;;4980126;28;20550;-68
2023/03/22 07:51:28;;;;;;;14.87;9.40;;;12.00;99.90;;;;;;4997132;28;20427;-67
2023/03/22 07:53:55;;;;;;;11.53;9.30;;;12.20;99.90;;;;;;4998153;28;20438;-68
2023/03/22 07:56:24;;;;;;;12.03;8.17;;;12.30;99.90;;;;;;4997469;28;20426;-68
2023/03/22 07:58:52;;;;;;;14.03;9.47;;;12.40;99.90;;;;;;4997274;28;20474;-68
2023/03/22 08:01:20;;;;;;;17.77;10.20;;;12.50;99.90;;;;;;4998508;28;20426;-67
2023/03/22 08:03:47;;;;;;;13.87;8.47;;;12.60;99.90;;;;;;5003760;28;20553;-67
2023/03/22 08:06:15;;;;;;;10.40;8.17;;;12.60;99.90;;;;;;5021993;28;20508;-67
2023/03/22 08:08:42;;;;;;;13.93;8.50;;;12.70;99.90;;;;;;5001935;28;20469;-68
2023/03/22 08:11:11;;;;;;;16.47;8.67;;;12.80;99.90;;;;;;5016089;28;20507;-67
2023/03/22 08:13:40;;;;;;;13.67;8.60;;;12.90;99.90;;;;;;5009295;28;20500;-67
2023/03/22 08:16:07;;;;;;;12.43;7.73;;;12.90;99.90;;;;;;5017854;28;20432;-69
2023/03/22 08:18:35;;;;;;;12.00;9.07;;;13.00;99.90;;;;;;5017022;28;20529;-69
2023/03/22 08:21:02;;;;;;;11.53;8.20;;;13.00;99.90;;;;;;4999253;28;21014;-68
2023/03/22 08:23:29;;;;;;;12.33;7.60;;;13.00;99.90;;;;;;5015644;28;20895;-68
2023/03/22 08:25:56;;;;;;;10.43;8.30;;;13.10;99.90;;;;;;5013835;28;20525;-66
2023/03/22 08:28:23;;;;;;;12.47;7.87;;;13.20;99.90;;;;;;5016200;28;20469;-67
2023/03/22 08:30:54;;;;;;;11.73;7.20;;;13.20;99.90;;;;;;5016624;28;20472;-69
2023/03/22 08:33:22;;;;;;;9.53;7.30;;;13.30;99.90;;;;;;5016822;28;20425;-68
2023/03/22 08:35:49;;;;;;;14.30;9.40;;;13.40;99.90;;;;;;5016895;28;20418;-68
2023/03/22 08:38:17;;;;;;;10.10;7.57;;;13.40;99.90;;;;;;5016349;28;20949;-67
2023/03/22 08:40:46;;;;;;;9.93;7.67;;;13.50;99.90;;;;;;5016823;28;20473;-69
2023/03/22 08:43:14;;;;;;;11.67;6.63;;;13.70;99.90;;;;;;5016334;28;20414;-68
2023/03/22 08:45:42;;;;;;;11.77;7.73;;;13.80;99.90;;;;;;5016901;28;20779;-67
2023/03/22 08:48:10;;;;;;;9.30;7.20;;;13.90;99.90;;;;;;4999050;28;20928;-68
2023/03/22 08:50:38;;;;;;;8.37;6.43;;;14.00;99.90;;;;;;5016568;28;20468;-68
2023/03/22 08:53:11;;;;;;;12.53;7.50;;;14.20;99.90;;;;;;4998726;28;20869;-68
2023/03/22 08:55:43;;;;;;;12.53;6.87;;;14.20;99.90;;;;;;5017454;28;20493;-68
2023/03/22 08:58:11;;;;;;;10.50;7.30;;;14.30;99.90;;;;;;5016110;28;20445;-67
2023/03/22 09:00:38;;;;;;;10.73;7.70;;;14.30;99.90;;;;;;5017200;28;20426;-68
2023/03/22 09:03:06;;;;;;;9.57;6.70;;;14.20;99.90;;;;;;5016270;28;20438;-68
2023/03/22 09:05:34;;;;;;;8.83;6.67;;;14.30;99.90;;;;;;5015850;28;20488;-68
2023/03/22 09:08:04;;;;;;;8.83;7.10;;;14.40;99.90;;;;;;5015868;28;20468;-67
2023/03/22 09:10:31;;;;;;;15.17;7.20;;;14.50;99.90;;;;;;5015450;28;20813;-67
2023/03/22 09:12:59;;;;;;;10.63;6.40;;;14.60;99.90;;;;;;5015194;28;20956;-68
2023/03/22 09:15:25;;;;;;;9.20;6.30;;;14.70;99.90;;;;;;5015667;28;20430;-68
2023/03/22 09:17:52;;;;;;;12.23;7.07;;;14.80;99.90;;;;;;5015246;28;20941;-66
2023/03/22 09:20:24;;;;;;;9.17;6.43;;;14.90;99.90;;;;;;5015391;28;20496;-70
2023/03/22 09:22:52;;;;;;;8.73;6.80;;;15.10;99.90;;;;;;5015772;28;20560;-67
2023/03/22 09:25:20;;;;;;;11.27;6.77;;;15.30;99.90;;;;;;5015505;28;20980;-67
2023/03/22 09:27:47;;;;;;;11.60;7.70;;;15.50;99.90;;;;;;5014271;28;20445;-67
2023/03/22 09:30:14;;;;;;;15.50;6.30;;;16.30;99.90;;;;;;5014795;28;20461;-66
2023/03/22 09:32:41;;;;;;;11.87;7.20;;;17.50;99.90;;;;;;5014411;28;20461;-66
2023/03/22 09:35:09;;;;;;;6.90;5.70;;;18.70;99.90;;;;;;5014101;28;20496;-68
2023/03/22 09:37:36;;;;;;;11.57;6.70;;;19.30;99.90;;;;;;5013686;28;20429;-67
2023/03/22 09:40:06;;;;;;;7.20;6.10;;;19.40;99.90;;;;;;5013635;28;21012;-68
2023/03/22 09:42:38;;;;;;;9.30;6.60;;;19.10;99.90;;;;;;5012776;28;20977;-67
2023/03/22 09:45:07;;;;;;;14.93;7.03;;;18.80;99.90;;;;;;5013689;28;20501;-67
2023/03/22 09:47:38;;;;;;;10.90;6.33;;;18.60;99.90;;;;;;5014147;28;20501;-67
2023/03/22 09:50:11;;;;;;;8.37;6.70;;;18.60;99.90;;;;;;5013409;28;20756;-67
2023/03/22 09:52:39;;;;;;;10.40;6.47;;;18.50;99.90;;;;;;5014249;28;20481;-67
2023/03/22 09:55:19;;;;;;;9.73;5.90;;;18.40;99.90;;;;;;5014030;28;20968;-68
2023/03/22 09:57:54;;;;;;;12.63;6.67;;;18.10;99.90;;;;;;5014236;28;20468;-68
2023/03/22 10:00:28;;;;;;;11.47;6.30;;;18.00;99.90;;;;;;5014305;28;20464;-68
2023/03/22 10:03:01;;;;;;;7.97;5.23;;;17.90;99.90;;;;;;5014096;28;20500;-66
2023/03/22 10:05:37;;;;;;;12.37;7.43;;;18.00;99.90;;;;;;5014062;28;20905;-68
2023/03/22 10:08:30;;;;;;;8.70;5.77;;;18.10;99.90;;;;;;5014189;28;20526;-67
2023/03/22 10:11:00;;;;;;;7.80;5.93;;;18.70;99.90;;;;;;5014117;28;20457;-67
2023/03/22 10:13:36;;;;;;;7.30;5.67;;;19.60;99.90;;;;;;5013122;28;20511;-66
2023/03/22 10:16:06;;;;;;;9.90;6.17;;;20.60;99.90;;;;;;5013547;28;20429;-67
2023/03/22 10:18:36;;;;;;;7.97;6.73;;;21.00;99.90;;;;;;4996301;28;20465;-67
2023/03/22 10:21:05;;;;;;;8.37;5.33;;;20.50;99.90;;;;;;5013176;28;20983;-68
2023/03/22 10:23:37;;;;;;;8.20;5.60;;;20.10;99.90;;;;;;5014250;28;20465;-68
2023/03/22 10:26:07;;;;;;;7.73;5.90;;;19.90;99.90;;;;;;5017942;28;20501;-66
2023/03/22 10:28:39;;;;;;;7.03;4.97;;;20.00;99.90;;;;;;5020126;28;20468;-67
2023/03/22 10:31:12;;;;;;;6.90;5.70;;;20.10;99.90;;;;;;5018914;28;20508;-68
2023/03/22 10:33:49;;;;;;;7.00;5.00;;;20.00;99.90;;;;;;5020135;28;20786;-66
2023/03/22 10:36:20;;;;;;;7.37;6.00;;;19.60;99.90;;;;;;5022171;28;20523;-67
2023/03/22 10:38:50;;;;;;;8.93;5.47;;;19.10;99.90;;;;;;5016377;28;20461;-68
2023/03/22 10:41:22;;;;;;;8.43;5.70;;;18.90;99.90;;;;;;5016270;28;20429;-66
2023/03/22 10:43:53;;;;;;;7.53;5.47;;;18.70;99.90;;;;;;5015908;28;21046;-68
2023/03/22 10:46:25;;;;;;;8.03;5.60;;;18.80;99.90;;;;;;5013618;28;20469;-66
2023/03/22 10:48:55;;;;;;;6.50;5.00;;;18.90;99.90;;;;;;5017179;28;20764;-68
2023/03/22 10:51:29;;;;;;;9.00;6.10;;;18.90;99.90;;;;;;5016636;28;20547;-67
2023/03/22 10:54:00;;;;;;;5.17;4.67;;;19.00;99.90;;;;;;5017565;28;20473;-68
2023/03/22 10:56:28;;;;;;;7.03;5.60;;;19.00;99.90;;;;;;5017198;28;20425;-68
2023/03/22 10:58:56;;;;;;;5.53;4.93;;;19.10;99.90;;;;;;5016771;28;20461;-66
2023/03/22 11:01:28;;;;;;;9.23;5.60;;;18.80;99.90;;;;;;5017258;28;20449;-67
2023/03/22 11:03:58;;;;;;;5.40;3.70;;;18.40;99.90;;;;;;5017433;28;20425;-67
2023/03/22 11:06:28;;;;;;;6.60;4.90;;;18.30;99.90;;;;;;5017712;28;20544;-68
2023/03/22 11:08:59;;;;;;;10.13;5.43;;;18.10;99.90;;;;;;5017764;28;20473;-68
2023/03/22 11:11:29;;;;;;;7.80;5.33;;;18.00;99.90;;;;;;5016872;28;20489;-67
2023/03/22 11:14:02;;;;;;;9.07;5.07;;;17.90;99.90;;;;;;5016970;28;20472;-68
2023/03/22 11:16:31;;;;;;;8.37;4.90;;;17.90;99.90;;;;;;5016685;28;20521;-68
2023/03/22 11:19:01;;;;;;;4.60;3.97;;;17.80;99.90;;;;;;5016943;28;20527;-68
2023/03/22 11:21:31;;;;;;;9.37;5.60;;;17.70;99.90;;;;;;5016629;28;20433;-68
2023/03/22 11:24:03;;;;;;;7.47;4.80;;;17.80;99.90;;;;;;5017613;28;20456;-68
2023/03/22 11:26:34;;;;;;;5.93;4.70;;;17.90;99.90;;;;;;5017083;28;20543;-68
2023/03/22 11:29:06;;;;;;;8.10;6.00;;;18.00;99.90;;;;;;5016403;28;20534;-68
2023/03/22 11:31:54;;;;;;;11.90;6.93;;;17.80;99.90;;;;;;5017012;28;20526;-68
2023/03/22 11:34:23;;;;;;;5.47;4.30;;;17.70;99.90;;;;;;5017036;28;20437;-67
2023/03/22 11:36:55;;;;;;;8.10;3.70;;;17.50;99.90;;;;;;5016438;28;20469;-68
2023/03/22 11:39:23;;;;;;;4.27;3.60;;;17.40;99.90;;;;;;5016575;28;20464;-67
2023/03/22 11:41:52;;;;;;;11.33;3.47;;;17.30;99.90;;;;;;5016798;28;20434;-67
2023/03/22 11:44:21;;;;;;;4.30;3.20;;;17.30;99.90;;;;;;5002713;28;20541;-67
2023/03/22 11:46:53;;;;;;;11.50;3.90;;;17.40;99.90;;;;;;4997430;28;20466;-67
2023/03/22 11:49:22;;;;;;;6.13;3.80;;;17.30;99.90;;;;;;4996724;28;20571;-67
2023/03/22 11:51:51;;;;;;;5.33;2.90;;;17.40;99.90;;;;;;4997085;28;20851;-67
2023/03/22 11:54:27;;;;;;;7.40;3.50;;;17.50;99.90;;;;;;4996811;28;20430;-67
2023/03/22 11:57:00;;;;;;;5.20;3.33;;;17.50;99.90;;;;;;4997302;28;20476;-67
2023/03/22 11:59:29;;;;;;;6.00;3.93;;;17.40;99.90;;;;;;4997105;28;20536;-68
2023/03/22 12:02:02;;;;;;;6.27;3.37;;;17.40;99.90;;;;;;4997001;28;20430;-67
2023/03/22 12:04:34;;;;;;;3.83;3.30;;;17.50;99.90;;;;;;5014974;28;20460;-67
2023/03/22 12:07:05;;;;;;;6.13;3.63;;;17.70;99.90;;;;;;5016713;28;20887;-69
2023/03/22 12:09:40;;;;;;;4.30;3.40;;;17.80;99.90;;;;;;5016204;28;20465;-67
2023/03/22 12:12:12;;;;;;;5.00;2.70;;;18.00;99.90;;;;;;5015911;28;20467;-68
2023/03/22 12:14:46;;;;;;;5.87;3.90;;;18.20;99.90;;;;;;5016393;28;20448;-68
2023/03/22 12:17:19;;;;;;;6.33;4.47;;;18.30;99.90;;;;;;5015427;28;20442;-66
2023/03/22 12:19:56;;;;;;;4.50;3.23;;;18.30;99.90;;;;;;5016015;28;20609;-67
2023/03/22 12:22:29;;;;;;;3.80;3.50;;;18.30;99.90;;;;;;5016159;28;20511;-67
2023/03/22 12:25:00;;;;;;;7.10;4.30;;;18.20;99.90;;;;;;5015728;28;20441;-67
2023/03/22 12:27:34;;;;;;;4.73;3.30;;;18.00;99.90;;;;;;5015422;28;20515;-68
2023/03/22 12:30:06;;;;;;;8.17;5.03;;;18.00;99.90;;;;;;5015707;28;20556;-68
2023/03/22 12:32:40;;;;;;;9.13;4.37;;;18.00;99.90;;;;;;5015600;28;20751;-68
2023/03/22 12:35:12;;;;;;;5.47;3.83;;;18.00;99.90;;;;;;5015889;28;20909;-68
2023/03/22 12:37:42;;;;;;;4.87;3.90;;;18.00;99.90;;;;;;5015918;28;20476;-68
2023/03/22 12:40:28;;;;;;;7.20;3.87;;;18.00;99.90;;;;;;4996095;28;20641;-68
2023/03/22 12:43:04;;;;;;;6.80;3.80;;;17.90;99.90;;;;;;4996226;28;20427;-67
2023/03/22 12:45:39;;;;;;;6.20;3.73;;;17.80;99.90;;;;;;4996073;28;20968;-67
2023/03/22 12:48:13;;;;;;;5.70;3.90;;;17.80;99.90;;;;;;4995989;28;20461;-68
2023/03/22 12:50:46;;;;;;;6.77;4.83;;;17.90;99.90;;;;;;4996409;28;20457;-67
2023/03/22 12:53:16;;;;;;;6.07;4.27;;;17.90;99.90;;;;;;4996316;28;20434;-67